Naoro Airport

NOO · Northern Province, 巴布亚新几内亚

罗盘
风向 的 风向 310°
风: 5 kt, 2 beaufort

添加一条跑道以查看侧风和逆风信息。

添置 跑道
0 ft 1.000 2.000 3.000 4.000 5.000
Cloud Cloud
FEW 2.500
Cloud Cloud Cloud Cloud Cloud Cloud
BKN 4.000
METAR AYPY 021500Z 31005KT 9999 SHRA FEW025 BKN040 25/24 Q1006

METAR Naoro Airport - NOO/NOO

Naoro Airport是,巴布亚新几内亚中的小机场。 视场标高为2.372 ft。 该领域的国际民航组织标志是NOO 它的国际航空运输协会代码是NOO.

这份报告是针对2023年2月3日 01:00, 当地时间在傑克遜斯國際機場进行的。

机场观察

风向为310°,速度为5 kt。

可见度为10 km 或者更多。

有几云在2.500 ft的高度 和 碎云在4.000 ft的高度。 破损或更高的上限为4.000 ft。

当前天气为阵雨 雨。 温度和风寒是25 °C。 露点为24 °C,相对湿度为94%。 海平面上的气压为1006 hPa (QNH)。

白天

今天,太阳从06:08升起,在18:38降落。 这适用于Naoro Airport,世界夏令时可能有所不同。 当地时间与世界标准时间之间的时差为+10 小时。 当前,没有夏令时有效。

公司介绍

我们没有关于这个机场的公司信息。

体会

到Vliegles.nl去找飞行课程,跳伞和其他飞行体验。 浏览页面,了解Naoro Airport附近所有可用的活动。 你也可以使用搜索功能来寻找你所在地附近的特定飞行课程、跳伞或其他飞行体验。

乌云

2.500 ft FEW 几云
4.000 ft BKN 碎云

温度 & 天气

天气 阵雨 雨
温度 25 °C
露点 24 °C
相对湿度 94%
Kp-index 0 (0-9)

白天

日出
06:09 (4:41)
中午
12:24
日落
18:39

小工具

你想在你的网站上有一个关于Naoro Airport的当前航空天气(METAR)的小部件吗?

显示HTML代码

我们和第三方通过cookies跟踪您在我们网站上的互联网行为。如果你继续,我们认为你同意我们的饼干政策